Time;durP1;ratioP1;P1;durP2;ratioP2;P2;SDS_P1;SDS_P2;PMS_P1;PMS_P2;Temp;Humidity;BMP_temperature;BMP_pressure;BME280_temperature;BME280_humidity;BME280_pressure;Samples;Min_cycle;Max_cycle;Signal;HPM_P1;HPM_P2
2022/12/28 00:02:18;;;;;;;5.45;1.70;;;;;;;6.57;78.33;101505.47;5068875;28;20037;-75
2022/12/28 00:04:44;;;;;;;6.68;1.80;;;;;;;6.62;78.52;101510.69;5058726;28;20099;-76
2022/12/28 00:07:10;;;;;;;3.75;1.25;;;;;;;6.62;78.96;101508.09;5028542;28;20037;-75
2022/12/28 00:09:35;;;;;;;6.28;2.05;;;;;;;6.61;78.91;101504.69;5049536;28;20109;-75
2022/12/28 00:12:00;;;;;;;6.78;2.35;;;;;;;6.66;78.56;101499.63;5032478;28;20482;-75
2022/12/28 00:14:26;;;;;;;2.80;1.65;;;;;;;6.66;78.95;101497.94;5051590;28;20043;-75
2022/12/28 00:16:51;;;;;;;3.38;1.60;;;;;;;6.65;79.35;101491.06;5052550;28;20073;-75
2022/12/28 00:19:17;;;;;;;5.20;2.00;;;;;;;6.68;78.62;101501.41;5068288;28;20090;-75
2022/12/28 00:21:43;;;;;;;9.40;1.50;;;;;;;6.68;78.60;101500.53;5030100;28;20060;-75
2022/12/28 00:24:22;;;;;;;4.88;1.60;;;;;;;6.69;79.24;101500.56;5049406;28;20040;-75
2022/12/28 00:26:48;;;;;;;6.07;1.85;;;;;;;6.70;79.05;101504.00;5050551;28;20043;-75
2022/12/28 00:29:14;;;;;;;7.05;2.05;;;;;;;6.73;79.22;101501.50;5049725;28;20024;-75
2022/12/28 00:31:40;;;;;;;5.57;1.90;;;;;;;6.76;79.37;101504.13;5049589;28;20494;-75
2022/12/28 00:34:06;;;;;;;7.78;2.10;;;;;;;6.82;78.82;101501.69;5068356;28;20052;-75
2022/12/28 00:36:31;;;;;;;3.03;1.67;;;;;;;6.87;79.11;101482.94;5068019;28;20498;-75
2022/12/28 00:38:57;;;;;;;5.95;2.00;;;;;;;6.90;78.66;101480.41;5054441;28;20032;-75
2022/12/28 00:41:23;;;;;;;6.78;1.60;;;;;;;6.91;78.80;101487.25;5075098;28;20032;-75
2022/12/28 00:43:49;;;;;;;4.05;1.85;;;;;;;6.93;78.59;101489.00;5053207;28;20033;-75
2022/12/28 00:46:14;;;;;;;4.80;1.83;;;;;;;6.95;79.05;101485.63;5070634;28;20078;-75
2022/12/28 00:48:39;;;;;;;4.90;1.80;;;;;;;6.97;78.88;101477.94;5066143;28;20433;-75
2022/12/28 00:51:07;;;;;;;6.65;2.00;;;;;;;7.00;79.22;101470.28;5039877;28;20126;-75
2022/12/28 00:53:33;;;;;;;5.05;2.13;;;;;;;7.04;78.53;101469.50;5047435;28;20090;-75
2022/12/28 00:56:13;;;;;;;6.03;2.00;;;;;;;7.06;78.89;101467.84;5061893;28;20036;-75
2022/12/28 00:58:39;;;;;;;7.07;1.67;;;;;;;7.04;79.08;101470.34;5061665;28;20498;-75
2022/12/28 01:01:11;;;;;;;7.70;1.90;;;;;;;7.05;79.10;101468.66;5051435;28;20033;-76
2022/12/28 01:03:37;;;;;;;5.28;1.73;;;;;;;7.11;78.88;101467.06;5053198;28;20501;-76
2022/12/28 01:06:06;;;;;;;4.70;2.40;;;;;;;7.12;78.95;101461.06;5036281;28;20051;-75
2022/12/28 01:08:31;;;;;;;5.03;2.60;;;;;;;7.16;79.02;101441.44;5054169;28;20481;-76
2022/12/28 01:10:57;;;;;;;5.60;2.10;;;;;;;7.17;78.87;101441.50;5031503;28;20090;-75
2022/12/28 01:13:22;;;;;;;4.45;1.70;;;;;;;7.23;79.33;101436.44;5027235;28;20037;-76
2022/12/28 01:15:48;;;;;;;6.10;1.92;;;;;;;7.26;79.34;101433.06;5046398;28;20044;-76
2022/12/28 01:18:14;;;;;;;4.90;1.67;;;;;;;7.28;79.68;101434.81;5046854;28;20036;-75
2022/12/28 01:20:40;;;;;;;4.85;1.92;;;;;;;7.31;79.27;101432.28;5065588;28;20028;-76
2022/12/28 01:23:06;;;;;;;5.22;1.75;;;;;;;7.32;79.47;101418.59;5067626;28;20044;-75
2022/12/28 01:25:32;;;;;;;3.58;1.67;;;;;;;7.35;79.51;101408.34;5043977;28;20303;-75
2022/12/28 01:27:57;;;;;;;5.88;1.95;;;;;;;7.37;79.39;101401.50;5047949;28;20036;-76
2022/12/28 01:30:23;;;;;;;4.20;1.80;;;;;;;7.38;79.51;101403.25;5054818;28;20051;-75
2022/12/28 01:32:48;;;;;;;5.32;2.20;;;;;;;7.39;79.33;101402.41;5051498;28;20028;-75
2022/12/28 01:35:14;;;;;;;5.75;2.03;;;;;;;7.40;79.82;101401.56;5067099;28;20433;-76
2022/12/28 01:37:40;;;;;;;6.15;1.90;;;;;;;7.43;80.06;101401.59;5037920;28;20036;-76
2022/12/28 01:40:06;;;;;;;6.18;1.80;;;;;;;7.44;79.51;101400.78;5066143;28;20028;-76
2022/12/28 01:42:31;;;;;;;6.32;1.98;;;;;;;7.48;78.91;101396.50;5029036;28;20494;-76
2022/12/28 01:45:12;;;;;;;7.50;1.63;;;;;;;7.50;79.34;101405.13;5045272;28;20025;-76
2022/12/28 01:47:37;;;;;;;5.28;1.70;;;;;;;7.51;79.24;101383.69;5046723;28;20032;-76
2022/12/28 01:50:11;;;;;;;5.60;1.88;;;;;;;7.53;79.73;101383.72;5047246;28;20036;-76
2022/12/28 01:53:01;;;;;;;5.75;1.90;;;;;;;7.54;79.76;101377.72;5066443;28;20044;-76
2022/12/28 01:55:31;;;;;;;5.68;2.50;;;;;;;7.54;79.56;101365.72;5053974;28;20059;-76
2022/12/28 01:58:02;;;;;;;3.78;1.73;;;;;;;7.58;79.40;101370.09;5060899;28;20378;-76
2022/12/28 02:00:28;;;;;;;7.20;2.00;;;;;;;7.58;79.02;101353.78;5048907;28;20036;-76
2022/12/28 02:02:58;;;;;;;7.20;1.80;;;;;;;7.59;80.12;101355.53;5065612;28;20458;-76
2022/12/28 02:05:29;;;;;;;4.00;1.92;;;;;;;7.56;79.71;101350.34;5068530;28;20028;-76
2022/12/28 02:08:11;;;;;;;3.45;1.60;;;;;;;7.54;79.61;101340.00;5056094;28;20131;-76
2022/12/28 02:10:37;;;;;;;5.07;2.10;;;;;;;7.54;79.83;101340.00;5052836;28;20059;-76
2022/12/28 02:13:04;;;;;;;8.18;1.92;;;;;;;7.54;79.66;101334.00;5038670;28;20044;-76
2022/12/28 02:15:29;;;;;;;3.45;2.03;;;;;;;7.53;80.36;101335.72;5044529;28;20539;-76
2022/12/28 02:17:56;;;;;;;6.18;2.45;;;;;;;7.55;79.92;101328.00;5063133;28;20111;-75
2022/12/28 02:20:26;;;;;;;8.75;2.08;;;;;;;7.55;79.97;101325.44;5046580;28;20513;-76
2022/12/28 02:23:27;;;;;;;6.72;1.75;;;;;;;7.55;80.02;101321.16;5048026;28;20040;-76
2022/12/28 02:26:14;;;;;;;4.97;1.80;;;;;;;7.53;80.50;101317.72;5065386;28;20060;-76
2022/12/28 02:28:51;;;;;;;5.78;1.98;;;;;;;7.59;80.00;101317.81;5047548;28;20159;-76
2022/12/28 02:31:24;;;;;;;3.42;1.52;;;;;;;7.59;80.37;101320.38;5040072;28;20769;-76
2022/12/28 02:33:58;;;;;;;5.78;1.98;;;;;;;7.59;80.10;101311.78;5044793;28;20048;-76
2022/12/28 02:36:28;;;;;;;4.28;1.67;;;;;;;7.58;80.29;101300.63;5046769;28;20075;-76
2022/12/28 02:39:02;;;;;;;4.28;2.08;;;;;;;7.60;80.17;101303.19;5068413;28;20033;-76
2022/12/28 02:41:29;;;;;;;3.10;1.92;;;;;;;7.62;80.31;101289.53;5044407;28;20017;-76
2022/12/28 02:43:58;;;;;;;3.50;1.83;;;;;;;7.63;80.21;101291.25;5068508;28;20032;-76
2022/12/28 02:52:09;;;;;;;5.22;1.88;;;;;;;7.70;80.11;101284.47;5047977;28;20086;-76
2022/12/28 02:58:04;;;;;;;5.03;2.95;;;;;;;7.73;79.98;101274.22;5066721;28;20124;-76
2022/12/28 03:00:50;;;;;;;6.00;2.10;;;;;;;7.75;79.42;101264.78;5076423;28;20522;-76
2022/12/28 03:03:50;;;;;;;3.80;1.50;;;;;;;7.77;79.74;101260.53;5052946;28;20163;-76
2022/12/28 03:09:36;;;;;;;5.95;1.80;;;;;;;7.80;79.63;101245.13;5070061;28;20048;-76
2022/12/28 03:12:32;;;;;;;4.57;1.40;;;;;;;7.80;79.52;101240.81;5067464;28;20397;-76
2022/12/28 03:15:08;;;;;;;3.88;1.63;;;;;;;7.81;79.52;101233.97;5066241;28;20060;-76
2022/12/28 03:31:32;;;;;;;3.28;1.65;;;;;;;7.82;79.69;101222.84;5068833;28;20114;-73
2022/12/28 03:34:05;;;;;;;6.72;1.48;;;;;;;7.84;80.01;101216.00;5070983;28;20036;-76
2022/12/28 03:36:34;;;;;;;3.30;1.48;;;;;;;7.91;79.69;101215.22;5055764;28;20036;-75
2022/12/28 03:39:01;;;;;;;1.65;1.30;;;;;;;7.93;80.01;101224.69;5050757;28;20079;-76
2022/12/28 03:41:35;;;;;;;4.90;1.58;;;;;;;7.95;79.55;101212.66;5072169;28;20032;-76
2022/12/28 03:44:08;;;;;;;3.60;1.58;;;;;;;7.99;79.65;101214.44;5047722;28;20103;-75
2022/12/28 03:47:05;;;;;;;3.38;1.42;;;;;;;8.00;79.12;101202.44;5050546;28;20040;-76
2022/12/28 03:49:31;;;;;;;4.82;1.50;;;;;;;8.04;78.95;101190.47;5047313;28;20040;-76
2022/12/28 03:52:01;;;;;;;6.72;1.48;;;;;;;8.08;79.10;101192.19;5053105;28;20079;-76
2022/12/28 03:54:26;;;;;;;3.47;1.75;;;;;;;8.12;78.89;101181.09;5050007;28;20040;-76
2022/12/28 03:56:52;;;;;;;3.25;1.30;;;;;;;8.18;79.39;101179.44;5052350;28;20480;-75
2022/12/28 03:59:17;;;;;;;4.22;1.58;;;;;;;8.18;78.91;101182.00;5067466;28;20932;-76
2022/12/28 04:01:43;;;;;;;4.72;1.45;;;;;;;8.19;79.54;101172.56;5052935;28;20036;-76
2022/12/28 04:04:09;;;;;;;3.25;1.42;;;;;;;8.27;79.40;101168.31;5048508;28;20072;-75
2022/12/28 04:06:35;;;;;;;4.32;1.60;;;;;;;8.27;79.22;101166.63;5052367;28;20037;-76
2022/12/28 04:09:01;;;;;;;5.82;1.50;;;;;;;8.32;79.38;101156.34;5054978;28;20027;-75
2022/12/28 04:11:26;;;;;;;2.10;0.95;;;;;;;8.33;79.28;101150.34;5049301;28;20036;-76
2022/12/28 04:13:51;;;;;;;4.93;1.70;;;;;;;8.37;79.33;101152.06;5048939;28;20060;-76
2022/12/28 04:16:17;;;;;;;2.47;1.20;;;;;;;8.39;79.51;101148.69;5049475;28;20032;-76
2022/12/28 04:18:43;;;;;;;3.05;1.38;;;;;;;8.47;79.59;101143.56;5040706;28;20179;-76
2022/12/28 04:21:10;;;;;;;2.40;1.20;;;;;;;8.54;78.88;101138.44;5047773;28;20123;-76
2022/12/28 04:23:36;;;;;;;3.88;1.23;;;;;;;8.63;78.78;101142.81;5049770;28;20043;-76
2022/12/28 04:26:04;;;;;;;3.13;1.20;;;;;;;8.64;78.75;101130.75;5046187;28;20028;-76
2022/12/28 04:28:30;;;;;;;3.20;1.00;;;;;;;8.66;79.15;101131.66;5048571;28;20037;-76
2022/12/28 04:30:56;;;;;;;1.90;1.23;;;;;;;8.64;78.49;101133.34;5048899;28;20040;-76
2022/12/28 04:33:22;;;;;;;3.85;1.33;;;;;;;8.70;79.14;101125.63;5052711;28;20040;-76
2022/12/28 04:35:49;;;;;;;2.22;1.20;;;;;;;8.72;78.72;101129.97;5055166;28;20156;-75
2022/12/28 04:38:15;;;;;;;2.97;1.13;;;;;;;8.72;78.08;101129.09;5055302;28;20031;-76
2022/12/28 04:40:40;;;;;;;3.20;1.33;;;;;;;8.74;78.49;101122.22;5073550;28;20032;-75
2022/12/28 04:43:05;;;;;;;3.20;1.40;;;;;;;8.77;78.70;101120.53;5061299;28;20029;-75
2022/12/28 04:45:31;;;;;;;4.82;1.40;;;;;;;8.78;77.97;101119.69;5045361;28;20044;-76
2022/12/28 04:47:57;;;;;;;4.35;1.40;;;;;;;8.88;77.91;101118.00;5056772;28;20036;-75
2022/12/28 04:50:23;;;;;;;3.53;1.27;;;;;;;8.88;77.63;101120.56;5036987;28;20450;-76
2022/12/28 04:52:48;;;;;;;3.78;1.40;;;;;;;8.90;77.94;101122.28;5058558;28;20036;-76
2022/12/28 04:55:14;;;;;;;3.25;1.10;;;;;;;8.92;77.53;101118.03;5054356;28;20064;-75
2022/12/28 04:57:43;;;;;;;1.35;1.02;;;;;;;8.93;77.66;101112.00;5077364;28;20032;-75
2022/12/28 05:00:09;;;;;;;2.05;1.13;;;;;;;8.99;77.62;101108.59;5064349;28;20046;-76
2022/12/28 05:02:34;;;;;;;2.22;0.85;;;;;;;9.04;77.36;101101.75;5056428;28;20044;-76
2022/12/28 05:05:00;;;;;;;1.38;1.05;;;;;;;9.05;77.49;101101.72;5056548;28;20083;-75
2022/12/28 05:07:27;;;;;;;3.83;1.00;;;;;;;9.08;77.12;101106.91;5057616;28;20056;-75
2022/12/28 05:09:52;;;;;;;2.45;0.80;;;;;;;9.14;77.19;101101.75;5052471;28;20028;-76
2022/12/28 05:12:19;;;;;;;3.22;0.93;;;;;;;9.18;77.46;101104.34;5055047;28;20089;-75
2022/12/28 05:14:44;;;;;;;2.38;0.85;;;;;;;9.20;77.08;101100.06;5072806;28;20020;-75
2022/12/28 05:17:10;;;;;;;1.55;1.10;;;;;;;9.21;77.59;101099.19;5039261;28;20386;-76
2022/12/28 05:19:35;;;;;;;1.33;0.82;;;;;;;9.22;77.93;101091.47;5050927;28;20037;-76
2022/12/28 05:22:00;;;;;;;1.48;0.80;;;;;;;9.25;77.66;101082.88;5052702;28;20449;-75
2022/12/28 05:24:26;;;;;;;0.82;0.70;;;;;;;9.25;77.33;101088.91;5050341;28;20060;-75
2022/12/28 05:26:54;;;;;;;1.92;0.90;;;;;;;9.27;76.88;101082.03;5055782;28;20036;-75
2022/12/28 05:29:20;;;;;;;0.98;0.70;;;;;;;9.27;77.47;101076.00;5051339;28;20094;-76
2022/12/28 05:31:45;;;;;;;1.80;1.00;;;;;;;9.27;77.21;101082.03;5020669;28;20480;-76
2022/12/28 05:34:11;;;;;;;1.75;0.70;;;;;;;9.28;77.88;101075.16;5071960;28;20525;-76
2022/12/28 05:36:38;;;;;;;1.38;0.55;;;;;;;9.26;78.07;101079.47;5049084;28;20075;-76
2022/12/28 05:39:04;;;;;;;4.03;0.73;;;;;;;9.25;78.00;101077.72;5050416;28;20123;-76
2022/12/28 05:41:30;;;;;;;1.70;0.85;;;;;;;9.24;77.94;101066.53;5061921;28;20123;-76
2022/12/28 05:43:57;;;;;;;4.18;0.90;;;;;;;9.24;77.91;101068.25;5047207;28;20606;-75
2022/12/28 05:46:29;;;;;;;2.70;0.80;;;;;;;9.23;77.50;101059.66;5047839;28;20053;-75
2022/12/28 05:48:55;;;;;;;2.72;1.13;;;;;;;9.23;78.04;101059.66;5065027;28;20029;-75
2022/12/28 05:51:22;;;;;;;1.83;0.88;;;;;;;9.23;78.15;101056.25;5043195;28;20037;-76
2022/12/28 05:53:48;;;;;;;10.40;3.92;;;;;;;9.24;77.99;101058.81;5072818;28;20036;-75
2022/12/28 05:56:16;;;;;;;7.78;3.60;;;;;;;9.25;77.45;101059.66;5031825;28;20409;-76
2022/12/28 05:58:43;;;;;;;2.58;0.95;;;;;;;9.28;77.73;101050.22;5048387;28;20485;-76
2022/12/28 06:01:12;;;;;;;2.60;0.80;;;;;;;9.27;77.69;101042.47;5045517;28;20037;-76
2022/12/28 06:03:38;;;;;;;1.35;0.85;;;;;;;9.28;77.57;101039.03;5050821;28;20112;-76
2022/12/28 06:06:04;;;;;;;3.42;1.10;;;;;;;9.26;77.51;101040.75;5050283;28;20063;-76
2022/12/28 06:08:29;;;;;;;1.83;0.75;;;;;;;9.26;78.02;101045.94;5050596;28;20489;-76
2022/12/28 06:10:59;;;;;;;3.22;0.88;;;;;;;9.28;77.64;101042.47;5054619;28;20060;-76
2022/12/28 06:13:25;;;;;;;2.88;1.02;;;;;;;9.28;77.16;101029.59;5050747;28;20048;-76
2022/12/28 06:15:50;;;;;;;2.28;0.75;;;;;;;9.30;77.72;101038.19;5068602;28;20505;-76
2022/12/28 06:18:15;;;;;;;4.00;0.80;;;;;;;9.37;77.26;101033.88;5039637;28;20056;-75
2022/12/28 06:20:41;;;;;;;3.45;0.70;;;;;;;9.42;76.58;101022.72;5067787;28;20052;-76
2022/12/28 06:23:06;;;;;;;2.63;0.93;;;;;;;9.43;76.73;101021.00;5054397;28;20673;-76
2022/12/28 06:25:32;;;;;;;2.25;0.77;;;;;;;9.45;76.41;101021.84;5049469;28;20041;-76
2022/12/28 06:27:57;;;;;;;1.58;0.70;;;;;;;9.50;75.70;101007.22;5066843;28;20433;-76
2022/12/28 06:30:23;;;;;;;3.53;0.88;;;;;;;9.51;76.15;101020.13;5034039;28;20048;-75
2022/12/28 06:32:48;;;;;;;1.00;0.70;;;;;;;9.52;76.19;101008.97;5037682;28;20024;-75
2022/12/28 06:35:13;;;;;;;1.13;0.65;;;;;;;9.52;76.27;101010.69;5071935;28;20478;-76
2022/12/28 06:37:39;;;;;;;2.53;0.68;;;;;;;9.56;75.19;101002.91;5052720;28;20986;-76
2022/12/28 06:40:05;;;;;;;0.82;0.70;;;;;;;9.56;75.54;101002.91;5060285;28;20524;-76
2022/12/28 06:42:30;;;;;;;2.40;0.70;;;;;;;9.59;75.65;101005.53;5051544;28;20519;-76
2022/12/28 06:44:56;;;;;;;1.15;0.70;;;;;;;9.59;74.85;101002.09;5067832;28;20041;-76
2022/12/28 06:47:21;;;;;;;1.65;0.80;;;;;;;9.60;74.85;101002.09;5050862;28;20025;-76
2022/12/28 06:49:46;;;;;;;2.58;0.80;;;;;;;9.62;74.95;100997.78;5050548;28;20036;-76
2022/12/28 06:52:12;;;;;;;3.45;0.82;;;;;;;9.62;75.03;100992.63;5051415;28;20039;-76
2022/12/28 06:54:37;;;;;;;1.33;0.80;;;;;;;9.63;74.83;100991.78;5073434;28;20127;-76
2022/12/28 06:57:03;;;;;;;3.97;0.95;;;;;;;9.66;74.18;101008.97;5035439;28;20032;-76
2022/12/28 06:59:28;;;;;;;2.50;0.80;;;;;;;9.70;74.94;100978.88;5052657;28;20033;-76
2022/12/28 07:01:54;;;;;;;1.30;0.70;;;;;;;9.69;74.79;100990.91;5054085;28;20427;-76
2022/12/28 07:04:19;;;;;;;3.03;0.70;;;;;;;9.67;74.74;100993.47;5047873;28;20466;-76
2022/12/28 07:06:44;;;;;;;1.30;0.82;;;;;;;9.66;75.07;100991.78;5055382;28;20038;-76
2022/12/28 07:09:13;;;;;;;1.73;1.00;;;;;;;9.67;74.91;100996.06;5068916;28;20090;-76
2022/12/28 07:11:39;;;;;;;1.33;0.80;;;;;;;9.65;75.14;100995.19;5071006;28;20040;-76
2022/12/28 07:14:04;;;;;;;2.90;0.80;;;;;;;9.63;74.97;101007.25;5049708;28;20039;-77
2022/12/28 07:16:31;;;;;;;1.27;0.65;;;;;;;9.66;74.72;101007.25;5020923;28;20032;-76
2022/12/28 07:18:58;;;;;;;0.63;0.50;;;;;;;9.67;74.61;101001.22;5062043;28;20136;-76
2022/12/28 07:21:26;;;;;;;2.75;0.90;;;;;;;9.68;75.19;100999.50;5054811;28;20036;-76
2022/12/28 07:23:53;;;;;;;2.33;0.95;;;;;;;9.67;74.78;101005.53;5052497;28;20033;-75
2022/12/28 07:26:24;;;;;;;1.45;0.60;;;;;;;9.66;75.30;101003.81;5052312;28;20021;-76
2022/12/28 07:28:53;;;;;;;2.78;0.80;;;;;;;9.65;75.14;100999.50;5055004;28;20045;-76
2022/12/28 07:31:28;;;;;;;2.80;0.77;;;;;;;9.65;75.35;101002.94;5076945;28;20055;-76
2022/12/28 07:33:56;;;;;;;3.25;0.68;;;;;;;9.66;75.57;100990.91;5079007;28;20051;-76
2022/12/28 07:36:23;;;;;;;2.22;0.65;;;;;;;9.63;75.22;100989.19;5041847;28;20092;-76
2022/12/28 07:38:49;;;;;;;1.35;0.60;;;;;;;9.68;75.34;100992.63;5060243;28;20039;-75
2022/12/28 07:41:17;;;;;;;1.65;0.90;;;;;;;9.70;74.77;100991.78;5062170;28;20036;-76
2022/12/28 07:43:43;;;;;;;3.13;1.30;;;;;;;9.72;74.25;100997.78;5068456;28;20083;-75
2022/12/28 07:46:18;;;;;;;1.52;0.82;;;;;;;9.76;74.07;100987.47;5045015;28;20033;-76
2022/12/28 07:48:44;;;;;;;1.75;0.90;;;;;;;9.76;74.62;100997.78;5050004;28;20148;-76
2022/12/28 07:51:29;;;;;;;1.83;0.63;;;;;;;9.76;74.04;100987.47;5046410;28;20465;-75
2022/12/28 07:53:57;;;;;;;5.68;1.00;;;;;;;9.80;74.23;100990.88;5048385;28;20021;-75
2022/12/28 07:56:23;;;;;;;1.05;0.50;;;;;;;9.80;74.29;100993.47;5048224;28;20072;-76
2022/12/28 07:58:50;;;;;;;0.95;0.70;;;;;;;9.83;74.48;100990.88;5056802;28;20244;-76
2022/12/28 08:01:18;;;;;;;2.30;1.05;;;;;;;9.84;74.18;100992.59;5040763;28;20055;-76
2022/12/28 08:03:43;;;;;;;1.67;0.90;;;;;;;9.85;73.72;100990.00;5052334;28;20059;-74
2022/12/28 08:06:14;;;;;;;2.92;1.55;;;;;;;9.86;73.87;100996.91;5069532;28;20502;-75
2022/12/28 08:08:42;;;;;;;2.67;0.85;;;;;;;9.87;74.89;101002.94;5069273;28;20494;-75
2022/12/28 08:11:10;;;;;;;1.33;0.77;;;;;;;9.86;74.81;100999.47;5020734;28;20405;-75
2022/12/28 08:13:39;;;;;;;3.10;0.77;;;;;;;9.87;74.76;101000.34;5031703;28;20127;-75
2022/12/28 08:16:05;;;;;;;4.88;1.67;;;;;;;9.89;74.82;100989.16;5047314;28;20118;-76
2022/12/28 08:18:31;;;;;;;2.10;0.80;;;;;;;9.91;75.04;100990.00;5069883;28;20052;-75
2022/12/28 08:21:05;;;;;;;3.72;0.98;;;;;;;9.94;74.55;101004.63;5067180;28;20473;-76
2022/12/28 08:23:31;;;;;;;4.80;0.98;;;;;;;9.94;74.38;100995.16;5048065;28;20021;-75
2022/12/28 08:26:12;;;;;;;3.72;1.30;;;;;;;9.97;74.25;101000.31;5066691;28;20036;-75
2022/12/28 08:28:39;;;;;;;2.67;1.00;;;;;;;10.02;73.79;100995.16;5064143;28;20141;-75
2022/12/28 08:31:10;;;;;;;2.35;0.80;;;;;;;10.03;74.33;100997.72;5051174;28;20127;-76
2022/12/28 08:33:36;;;;;;;1.73;0.77;;;;;;;10.03;75.05;100996.88;5050322;28;20036;-76
2022/12/28 08:36:03;;;;;;;2.75;1.10;;;;;;;10.03;74.60;101002.03;5055712;28;20225;-75
2022/12/28 08:38:29;;;;;;;1.42;0.75;;;;;;;10.05;74.54;100998.59;5056529;28;20028;-76
2022/12/28 08:41:00;;;;;;;1.77;0.95;;;;;;;10.10;74.79;101001.16;5069143;28;20062;-75
2022/12/28 08:43:27;;;;;;;2.38;0.90;;;;;;;10.11;74.57;101000.28;5071229;28;20037;-76
2022/12/28 08:46:07;;;;;;;1.00;0.70;;;;;;;10.13;74.62;100993.38;5051269;28;20052;-75
2022/12/28 08:48:34;;;;;;;5.30;1.00;;;;;;;10.16;73.86;100985.63;5026484;28;20104;-76
2022/12/28 08:51:05;;;;;;;2.53;1.08;;;;;;;10.20;75.26;101000.25;5022221;28;1212707;-76
2022/12/28 08:53:31;;;;;;;2.55;1.00;;;;;;;10.22;74.30;100993.34;5033617;28;20493;-75
2022/12/28 08:56:17;;;;;;;3.33;0.80;;;;;;;10.24;74.00;100992.47;5047874;28;20028;-76
2022/12/28 08:58:44;;;;;;;2.95;1.40;;;;;;;10.26;74.12;100982.16;5047438;28;20403;-76
2022/12/28 09:01:11;;;;;;;3.45;0.80;;;;;;;10.30;74.27;100990.78;5072557;28;20035;-76
2022/12/28 09:03:39;;;;;;;1.98;1.02;;;;;;;10.31;74.03;100998.50;5050171;28;20044;-76
2022/12/28 09:06:07;;;;;;;5.03;2.33;;;;;;;10.32;74.14;100999.34;5049423;28;20060;-75
2022/12/28 09:08:32;;;;;;;1.67;0.90;;;;;;;10.33;74.04;101001.94;5032612;28;20067;-75
2022/12/28 09:11:03;;;;;;;1.75;1.33;;;;;;;10.35;74.38;100996.78;5045120;28;20040;-74
2022/12/28 09:13:29;;;;;;;2.30;1.00;;;;;;;10.38;74.59;100992.44;5028404;28;20056;-74
2022/12/28 09:15:56;;;;;;;2.75;1.00;;;;;;;10.39;74.50;100983.81;5065105;28;20033;-75
2022/12/28 09:18:21;;;;;;;2.85;1.00;;;;;;;10.41;74.14;100987.28;5055115;28;20501;-74
2022/12/28 09:20:47;;;;;;;2.42;0.77;;;;;;;10.45;73.99;100982.94;5081094;28;20039;-74
2022/12/28 09:23:12;;;;;;;3.30;0.98;;;;;;;10.49;73.17;100985.50;5069673;28;20036;-75
2022/12/28 09:25:38;;;;;;;2.60;0.77;;;;;;;10.55;73.24;100980.31;5034292;28;20032;-75
2022/12/28 09:28:03;;;;;;;2.78;0.60;;;;;;;10.58;72.87;100984.59;5065107;28;20454;-75
2022/12/28 09:30:29;;;;;;;2.25;0.70;;;;;;;10.60;72.84;100988.88;5050782;28;20039;-74
2022/12/28 09:35:38;;;;;;;4.20;3.10;;;;;;;10.61;73.25;100988.03;5071826;28;20082;-74
2022/12/28 09:38:03;;;;;;;3.40;1.73;;;;;;;10.63;73.00;100985.44;5077656;28;20036;-74
2022/12/28 09:40:29;;;;;;;1.35;1.05;;;;;;;10.67;73.16;100994.91;5026441;28;20127;-74
2022/12/28 09:42:54;;;;;;;1.63;1.13;;;;;;;10.70;72.70;100987.13;5063626;28;20048;-74
2022/12/28 09:45:25;;;;;;;3.72;1.92;;;;;;;10.74;73.09;100979.31;5051056;28;20040;-75
2022/12/28 09:47:54;;;;;;;4.43;2.60;;;;;;;10.80;72.75;100981.03;5072820;28;20124;-75
2022/12/28 09:50:28;;;;;;;3.22;1.88;;;;;;;10.83;72.35;100975.84;5052007;28;20111;-75
2022/12/28 09:53:15;;;;;;;3.40;1.00;;;;;;;10.85;72.41;100979.28;5040504;28;20268;-75
2022/12/28 09:55:50;;;;;;;3.67;2.03;;;;;;;10.86;72.59;100977.56;5044108;28;20068;-74
2022/12/28 09:58:16;;;;;;;5.40;2.72;;;;;;;10.88;72.50;100984.44;5050664;28;20056;-74
2022/12/28 10:00:45;;;;;;;1.85;1.35;;;;;;;10.91;71.91;100976.66;5053007;28;20033;-75
2022/12/28 10:03:25;;;;;;;3.75;1.48;;;;;;;10.90;71.79;100980.09;5042238;28;20767;-74
2022/12/28 10:05:52;;;;;;;3.17;1.90;;;;;;;10.91;71.79;100984.41;5049541;28;20566;-74
2022/12/28 10:08:21;;;;;;;15.73;7.25;;;;;;;10.90;72.48;100977.53;5060196;28;20020;-75
2022/12/28 10:10:49;;;;;;;7.72;3.65;;;;;;;10.90;72.73;100980.09;5059316;28;20098;-74
2022/12/28 10:13:18;;;;;;;14.30;6.07;;;;;;;10.91;72.60;100979.25;5080130;28;20060;-74
2022/12/28 10:15:44;;;;;;;9.00;4.72;;;;;;;10.91;72.12;100976.66;5051032;28;20041;-73
2022/12/28 10:18:14;;;;;;;2.42;1.35;;;;;;;10.94;72.00;100971.47;5073541;28;20043;-74
2022/12/28 10:20:41;;;;;;;3.45;1.30;;;;;;;10.99;72.20;100974.88;5046647;28;20028;-74
2022/12/28 10:23:13;;;;;;;1.60;0.88;;;;;;;11.01;71.47;100967.13;5070911;28;20032;-74
2022/12/28 10:25:39;;;;;;;1.80;1.25;;;;;;;11.06;71.91;100967.94;5060650;28;20032;-75
2022/12/28 10:28:09;;;;;;;1.55;0.98;;;;;;;11.12;71.84;100973.06;5058364;28;20040;-74
2022/12/28 10:30:45;;;;;;;3.58;1.20;;;;;;;11.15;71.47;100960.97;5070623;28;20173;-74
2022/12/28 10:33:16;;;;;;;1.55;0.95;;;;;;;11.18;71.39;100962.69;5052230;28;20562;-75
2022/12/28 10:35:49;;;;;;;2.80;1.08;;;;;;;11.19;71.43;100956.59;5062557;28;20024;-75
2022/12/28 10:38:25;;;;;;;3.25;1.52;;;;;;;11.23;71.98;100958.31;5071791;28;20125;-74
2022/12/28 10:41:02;;;;;;;3.47;1.33;;;;;;;11.23;71.34;100954.00;5052275;28;20103;-75
2022/12/28 10:43:31;;;;;;;3.58;1.40;;;;;;;11.24;71.75;100950.56;5067745;28;20028;-75
2022/12/28 10:45:58;;;;;;;4.38;1.38;;;;;;;11.26;71.09;100943.63;5066648;28;20506;-74
2022/12/28 10:48:31;;;;;;;5.55;1.60;;;;;;;11.28;71.58;100934.09;5068120;28;20044;-75
2022/12/28 10:51:10;;;;;;;4.28;1.60;;;;;;;11.32;71.79;100933.22;5065188;28;20037;-74
2022/12/28 10:53:48;;;;;;;3.70;1.52;;;;;;;11.34;71.00;100921.13;5038037;28;20116;-74
2022/12/28 10:56:13;;;;;;;3.33;1.83;;;;;;;11.35;71.26;100924.56;5068998;28;20396;-75
2022/12/28 10:58:41;;;;;;;8.52;3.05;;;;;;;11.36;70.60;100926.28;5044036;28;20129;-73
2022/12/28 11:01:09;;;;;;;5.78;3.13;;;;;;;11.36;71.42;100923.72;5058866;28;20080;-73
2022/12/28 11:03:38;;;;;;;9.43;4.40;;;;;;;11.36;70.79;100918.53;5042942;28;20058;-74
2022/12/28 11:06:13;;;;;;;12.35;5.13;;;;;;;11.36;70.80;100921.13;5050576;28;20025;-74
2022/12/28 11:08:40;;;;;;;10.02;4.47;;;;;;;11.37;71.34;100920.22;5044114;28;20028;-74
2022/12/28 11:11:06;;;;;;;22.17;9.15;;;;;;;11.34;70.59;100922.84;5052958;28;20039;-73
2022/12/28 11:13:32;;;;;;;39.63;16.73;;;;;;;11.32;70.54;100912.53;5065585;28;20332;-74
2022/12/28 11:15:58;;;;;;;16.98;7.45;;;;;;;11.34;71.38;100910.78;5035006;28;20075;-74
2022/12/28 11:18:40;;;;;;;11.23;4.75;;;;;;;11.32;71.35;100919.41;5032930;28;20059;-73
2022/12/28 11:21:12;;;;;;;3.60;1.70;;;;;;;11.29;70.69;100915.13;5034388;28;20059;-73
2022/12/28 11:23:38;;;;;;;4.70;1.60;;;;;;;11.30;71.03;100918.59;5031357;28;20028;-72
2022/12/28 11:26:03;;;;;;;2.67;1.20;;;;;;;11.33;71.30;100913.38;5050065;28;20032;-73
2022/12/28 11:28:29;;;;;;;3.00;1.45;;;;;;;11.31;70.22;100904.75;5033864;28;20505;-74
2022/12/28 11:30:55;;;;;;;3.80;1.73;;;;;;;11.29;69.95;100898.75;5036387;28;20059;-74
2022/12/28 11:33:43;;;;;;;4.25;1.30;;;;;;;11.23;70.58;100909.16;5069825;28;20044;-74
2022/12/28 11:36:20;;;;;;;5.65;1.75;;;;;;;11.19;69.80;100894.50;5050665;28;20506;-74
2022/12/28 11:38:48;;;;;;;5.60;1.48;;;;;;;11.15;69.59;100882.50;5049503;28;20028;-74
2022/12/28 11:41:22;;;;;;;4.20;2.10;;;;;;;11.11;70.03;100899.78;5063202;28;20122;-74
2022/12/28 11:43:56;;;;;;;2.45;1.30;;;;;;;11.10;69.62;100881.69;5057208;28;20572;-74
2022/12/28 11:46:21;;;;;;;4.23;2.37;;;;;;;11.08;68.92;100878.25;5070873;28;20033;-74
2022/12/28 11:48:53;;;;;;;7.38;1.67;;;;;;;11.08;69.35;100875.66;5075670;28;20050;-74
2022/12/28 11:51:25;;;;;;;3.60;1.45;;;;;;;11.06;69.11;100867.91;5046063;28;20037;-73
2022/12/28 11:54:02;;;;;;;5.25;1.77;;;;;;;11.03;69.22;100878.28;5049201;28;20032;-73
2022/12/28 11:56:57;;;;;;;4.13;1.48;;;;;;;11.04;69.42;100869.63;5069780;28;20582;-73
2022/12/28 11:59:28;;;;;;;4.50;1.98;;;;;;;11.03;69.69;100867.09;5050239;28;20205;-74
2022/12/28 12:01:59;;;;;;;15.63;7.82;;;;;;;11.01;68.83;100872.25;5044770;28;20071;-74
2022/12/28 12:04:38;;;;;;;12.15;6.22;;;;;;;11.00;69.40;100875.72;5053703;28;20060;-74
2022/12/28 12:07:04;;;;;;;18.05;6.63;;;;;;;10.98;69.99;100874.88;5079662;28;20044;-73